Time;durP1;ratioP1;P1;durP2;ratioP2;P2;SDS_P1;SDS_P2;PMS_P1;PMS_P2;Temp;Humidity;BMP_temperature;BMP_pressure;BME280_temperature;BME280_humidity;BME280_pressure;Samples;Min_cycle;Max_cycle;Signal;HPM_P1;HPM_P2
2024/03/07 00:02:58;;;;;;;49.40;26.70;;;;;;;2.42;100.00;99225.49;436382;1252;97123;-39
2024/03/07 00:13:06;;;;;;;38.00;20.80;;;;;;;2.38;100.00;99226.58;436278;1252;97759;-39
2024/03/07 00:23:13;;;;;;;30.30;18.90;;;;;;;2.41;100.00;99227.00;436409;1252;110965;-39
2024/03/07 00:43:27;;;;;;;36.20;20.20;;;;;;;2.35;100.00;99219.17;436424;1252;97954;-39
2024/03/07 00:53:34;;;;;;;35.50;21.20;;;;;;;2.34;100.00;99218.42;436289;1252;110470;-39
2024/03/07 01:03:42;;;;;;;51.10;27.70;;;;;;;2.29;99.99;99221.50;436462;1252;108472;-40
2024/03/07 01:13:49;;;;;;;36.50;20.30;;;;;;;2.24;99.87;99215.89;436442;1253;97260;-40
2024/03/07 01:23:56;;;;;;;36.20;21.20;;;;;;;2.23;99.62;99211.10;436397;1252;107295;-39
2024/03/07 01:34:04;;;;;;;47.70;27.10;;;;;;;2.14;99.60;99211.21;436464;1248;97494;-39
2024/03/07 01:44:11;;;;;;;29.90;19.70;;;;;;;2.09;99.24;99214.36;436481;1252;97893;-38
2024/03/07 01:54:18;;;;;;;45.50;24.30;;;;;;;2.04;99.03;99218.66;436406;1260;107173;-39
2024/03/07 02:04:26;;;;;;;49.00;24.80;;;;;;;1.88;98.85;99220.75;436369;1253;97231;-40
2024/03/07 02:14:33;;;;;;;30.80;18.90;;;;;;;1.76;98.37;99221.86;436376;1253;97868;-39
2024/03/07 02:24:40;;;;;;;33.20;20.00;;;;;;;1.58;97.99;99224.58;436359;1260;108244;-39
2024/03/07 02:44:54;;;;;;;33.90;21.00;;;;;;;1.02;97.61;99221.41;435745;1254;96632;-39
2024/03/07 02:55:03;;;;;;;36.60;23.80;;;;;;;0.92;97.48;99225.02;435742;1251;108916;-39
2024/03/07 03:05:10;;;;;;;62.50;31.20;;;;;;;0.74;97.53;99221.66;435468;1251;96655;-39
2024/03/07 03:15:20;;;;;;;34.80;25.00;;;;;;;0.62;97.36;99223.19;435694;1261;97480;-39
2024/03/07 03:25:27;;;;;;;39.50;23.30;;;;;;;0.58;97.37;99226.14;435774;1254;107395;-38
2024/03/07 03:35:35;;;;;;;54.80;30.40;;;;;;;0.43;97.48;99230.96;435813;1254;97864;-39
2024/03/07 03:45:42;;;;;;;37.50;21.90;;;;;;;0.24;97.20;99238.85;435881;1251;97595;-40
2024/03/07 04:05:56;;;;;;;32.70;20.20;;;;;;;-0.18;97.03;99240.65;435901;1251;121899;-39
2024/03/07 04:16:04;;;;;;;27.50;17.80;;;;;;;-0.29;96.37;99248.47;435654;1252;110516;-40
2024/03/07 04:26:11;;;;;;;49.00;25.70;;;;;;;-0.42;96.40;99255.61;435310;1254;586256;-39
2024/03/07 04:36:19;;;;;;;42.20;19.30;;;;;;;-0.59;95.96;99262.54;435823;1254;97867;-38
2024/03/07 04:46:26;;;;;;;33.20;18.00;;;;;;;-0.64;95.60;99263.16;435721;1253;107598;-41
2024/03/07 04:56:33;;;;;;;41.40;23.00;;;;;;;-0.69;95.82;99265.69;435708;1254;97877;-40
2024/03/07 05:06:40;;;;;;;47.70;26.40;;;;;;;-0.76;95.87;99263.11;435789;1253;98105;-40
2024/03/07 05:17:01;;;;;;;35.10;20.60;;;;;;;-0.76;95.56;99272.05;435765;1254;108455;-40
2024/03/07 05:27:11;;;;;;;35.90;17.80;;;;;;;-0.69;95.58;99274.04;435589;1249;107581;-39
2024/03/07 05:47:24;;;;;;;53.80;26.10;;;;;;;-0.77;95.59;99281.93;435848;1250;97977;-39
2024/03/07 05:57:30;;;;;;;37.90;21.60;;;;;;;-0.88;94.96;99287.73;435754;1254;110496;-41
2024/03/07 06:07:38;;;;;;;38.40;21.20;;;;;;;-0.86;95.02;99291.55;435965;1248;108211;-39
2024/03/07 06:17:46;;;;;;;49.20;27.20;;;;;;;-0.74;95.40;99293.21;435770;1251;96588;-40
2024/03/07 06:27:56;;;;;;;43.00;22.50;;;;;;;-0.35;95.45;99298.36;436049;1252;109190;-40
2024/03/07 06:38:03;;;;;;;;;;;;;;;-0.18;94.47;99303.02;435999;1252;107769;-39
2024/03/07 06:48:10;;;;;;;52.40;26.30;;;;;;;-0.40;94.41;99314.13;435815;1252;97701;-41
2024/03/07 06:58:18;;;;;;;48.00;25.30;;;;;;;-0.54;94.06;99324.13;435974;1252;110045;-41
2024/03/07 07:08:25;;;;;;;43.70;25.10;;;;;;;-0.49;94.17;99325.89;435778;1252;107659;-39
2024/03/07 07:18:32;;;;;;;65.40;30.90;;;;;;;-0.43;94.51;99327.73;435950;1252;97864;-39
2024/03/07 07:28:40;;;;;;;44.00;25.00;;;;;;;-0.35;93.99;99329.25;435823;1254;97343;-42
2024/03/07 07:38:47;;;;;;;53.80;28.20;;;;;;;-0.34;93.88;99331.39;435848;1252;109048;-40
2024/03/07 07:48:55;;;;;;;65.20;31.10;;;;;;;-0.26;94.28;99335.20;436035;1250;96666;-40
2024/03/07 07:59:03;;;;;;;45.40;26.70;;;;;;;-0.07;93.92;99335.80;435856;1248;97515;-40
2024/03/07 08:19:17;;;;;;;64.40;33.70;;;;;;;-0.03;94.00;99342.30;436009;1252;96569;-40
2024/03/07 08:39:31;;;;;;;60.60;32.20;;;;;;;0.42;93.89;99333.51;435666;1250;108160;-39
2024/03/07 08:49:39;;;;;;;68.90;35.30;;;;;;;0.42;93.34;99339.55;435929;1249;97557;-39
2024/03/07 08:59:47;;;;;;;46.70;26.70;;;;;;;0.62;93.33;99342.23;435798;1252;97855;-39
2024/03/07 09:09:54;;;;;;;56.70;31.10;;;;;;;0.75;93.13;99337.80;435932;1249;107252;-42
2024/03/07 09:20:02;;;;;;;68.20;34.70;;;;;;;0.81;92.69;99338.30;435775;1252;96636;-40
2024/03/07 09:30:14;;;;;;;45.80;25.00;;;;;;;1.03;92.24;99331.86;435842;1249;97867;-39
2024/03/07 09:40:24;;;;;;;58.50;32.40;;;;;;;1.36;92.14;99335.19;435784;1252;107312;-41
2024/03/07 10:00:40;;;;;;;50.70;26.90;;;;;;;1.87;91.11;99347.86;435706;1249;108673;-39
2024/03/07 10:10:45;;;;;;;65.50;33.70;;;;;;;2.15;90.65;99353.25;435891;1252;107469;-41
2024/03/07 10:31:03;;;;;;;45.40;26.40;;;;;;;2.66;88.63;99353.42;435806;1252;96727;-40
2024/03/07 10:41:11;;;;;;;53.90;30.60;;;;;;;2.74;88.42;99344.09;435628;1252;107749;-40
2024/03/07 10:51:17;;;;;;;42.60;25.10;;;;;;;3.00;87.09;99354.16;435823;1252;97740;-42
2024/03/07 11:01:26;;;;;;;53.80;29.80;;;;;;;3.73;86.77;99350.44;435867;1252;97503;-39
2024/03/07 11:11:33;;;;;;;43.40;26.80;;;;;;;4.26;85.53;99334.94;435797;1252;109048;-38
2024/03/07 11:42:02;;;;;;;50.30;26.60;;;;;;;4.37;80.27;99319.12;435661;1251;97861;-39
2024/03/07 12:12:27;;;;;;;39.60;23.70;;;;;;;4.61;78.88;99301.08;435454;1253;108544;-40
2024/03/07 12:32:47;;;;;;;43.90;24.30;;;;;;;4.77;76.97;99299.41;435531;1252;109876;-39
2024/03/07 12:42:55;;;;;;;42.50;23.80;;;;;;;4.59;76.86;99295.36;435588;1249;107468;-39
2024/03/07 12:53:05;;;;;;;41.40;24.00;;;;;;;4.63;76.74;99295.07;435601;1250;98103;-40
2024/03/07 13:13:20;;;;;;;34.00;20.80;;;;;;;4.75;77.62;99296.27;435648;1252;110056;-40
2024/03/07 13:23:28;;;;;;;39.30;21.10;;;;;;;4.66;76.46;99293.73;435530;1248;108126;-39
2024/03/07 13:33:36;;;;;;;34.40;20.80;;;;;;;4.70;76.54;99290.86;435670;1252;97867;-40
2024/03/07 13:43:42;;;;;;;;;;;;;;;4.81;76.53;99290.25;435731;1249;97502;-41
2024/03/07 13:53:50;;;;;;;38.00;20.70;;;;;;;4.92;76.61;99282.29;435574;1252;110468;-39
2024/03/07 14:04:22;;;;;;;41.90;23.70;;;;;;;5.01;75.22;99279.44;435676;1252;107886;-38
2024/03/07 14:14:43;;;;;;;33.50;19.00;;;;;;;4.89;73.83;99278.02;435475;1252;97868;-39
2024/03/07 14:25:25;;;;;;;36.90;20.10;;;;;;;4.88;74.45;99277.93;435506;1252;96658;-40
2024/03/07 14:35:36;;;;;;;27.40;16.80;;;;;;;4.80;73.45;99277.26;435455;1252;111686;-39
2024/03/07 14:45:44;;;;;;;33.00;17.60;;;;;;;4.68;73.53;99273.54;435265;1249;107539;-39
2024/03/07 14:55:52;;;;;;;30.50;18.60;;;;;;;4.64;73.18;99272.80;435439;1252;96671;-39
2024/03/07 15:06:01;;;;;;;32.40;18.70;;;;;;;4.53;73.10;99273.42;435524;1252;97318;-40
2024/03/07 15:16:09;;;;;;;40.90;22.80;;;;;;;4.44;73.18;99268.89;435503;1252;110087;-39
2024/03/07 15:26:36;;;;;;;37.20;22.10;;;;;;;4.35;73.52;99266.40;435427;1249;109227;-40
2024/03/07 15:36:44;;;;;;;39.20;22.80;;;;;;;4.25;73.37;99267.48;435438;1252;97865;-40
2024/03/07 15:46:49;;;;;;;37.00;20.30;;;;;;;4.17;74.26;99267.68;435406;1252;97465;-40
2024/03/07 15:56:56;;;;;;;34.20;21.60;;;;;;;4.15;74.33;99267.84;435463;1252;108376;-40
2024/03/07 16:07:04;;;;;;;43.50;24.30;;;;;;;4.15;74.83;99268.72;435394;1250;108663;-39
2024/03/07 16:17:11;;;;;;;32.10;20.60;;;;;;;4.04;74.34;99273.72;435598;1252;97899;-41
2024/03/07 16:27:17;;;;;;;44.00;23.70;;;;;;;3.89;73.86;99279.62;435014;1252;490305;-38
2024/03/07 16:37:24;;;;;;;39.10;22.20;;;;;;;3.71;74.17;99282.02;435528;1251;108907;-40
2024/03/07 16:47:30;;;;;;;35.90;18.90;;;;;;;3.48;74.37;99290.45;435482;1252;97482;-39
2024/03/07 16:57:41;;;;;;;40.70;22.10;;;;;;;3.30;74.79;99295.70;435279;1252;110417;-39
2024/03/07 17:07:48;;;;;;;43.40;24.50;;;;;;;3.19;75.46;99305.29;435433;1250;108508;-39
2024/03/07 17:17:57;;;;;;;47.30;26.60;;;;;;;2.99;75.56;99310.86;435461;1252;97903;-39
2024/03/07 17:28:04;;;;;;;59.50;30.90;;;;;;;2.80;76.03;99320.28;435495;1252;110008;-40
2024/03/07 17:38:14;;;;;;;57.20;27.70;;;;;;;2.63;76.31;99324.90;435592;1252;107303;-39
2024/03/07 17:58:28;;;;;;;47.60;26.50;;;;;;;2.45;76.78;99335.31;435572;1249;97460;-38
2024/03/07 18:18:56;;;;;;;62.80;31.70;;;;;;;1.89;77.06;99348.05;435391;1252;97892;-40
2024/03/07 18:29:04;;;;;;;36.30;21.50;;;;;;;1.64;77.13;99351.45;435506;1250;97899;-39
2024/03/07 18:49:19;;;;;;;54.50;27.50;;;;;;;1.32;78.06;99361.17;435455;1252;96854;-39
2024/03/07 18:59:26;;;;;;;48.00;23.60;;;;;;;1.11;78.09;99366.20;435553;1261;97469;-40
2024/03/07 19:09:32;;;;;;;33.40;16.90;;;;;;;0.89;78.24;99370.39;435351;1251;111639;-38
2024/03/07 19:19:39;;;;;;;28.20;16.20;;;;;;;0.82;78.29;99363.69;435322;1252;107667;-40
2024/03/07 19:29:52;;;;;;;46.70;23.00;;;;;;;0.69;78.52;99369.08;435520;1252;97454;-40
2024/03/07 19:50:07;;;;;;;47.70;25.00;;;;;;;0.32;78.88;99373.51;435555;1252;110446;-39
2024/03/07 20:10:24;;;;;;;41.50;21.50;;;;;;;0.11;79.11;99362.99;435463;1251;97477;-40
2024/03/07 20:20:33;;;;;;;52.90;25.70;;;;;;;0.10;79.50;99360.58;435702;1254;109833;-39
2024/03/07 20:30:44;;;;;;;71.90;31.00;;;;;;;-0.00;79.51;99356.83;435602;1261;107854;-40
2024/03/07 20:50:58;;;;;;;62.10;27.30;;;;;;;-0.34;79.90;99353.27;435514;1251;97771;-39
2024/03/07 21:01:03;;;;;;;75.00;29.90;;;;;;;-0.51;79.98;99355.02;435625;1252;110901;-40
2024/03/07 21:11:11;;;;;;;43.90;23.50;;;;;;;-0.66;79.79;99351.32;435557;1261;97858;-41
2024/03/07 21:21:20;;;;;;;43.30;22.90;;;;;;;-0.68;80.16;99345.83;435539;1254;97743;-39
2024/03/07 21:31:26;;;;;;;71.00;34.60;;;;;;;-0.63;80.48;99341.52;435698;1254;108880;-39
2024/03/07 21:41:35;;;;;;;66.50;32.20;;;;;;;-0.76;80.72;99337.00;435535;1250;107573;-40
2024/03/07 22:01:53;;;;;;;56.60;31.00;;;;;;;-1.06;80.88;99336.17;435729;1262;98021;-40
2024/03/07 22:11:59;;;;;;;91.50;38.40;;;;;;;-1.01;81.15;99339.64;435615;1250;110717;-40
2024/03/07 22:22:07;;;;;;;186.40;59.90;;;;;;;-1.01;81.30;99332.89;435574;1254;107711;-39
2024/03/07 22:32:14;;;;;;;63.90;30.20;;;;;;;-1.16;81.48;99321.86;435532;1254;96670;-40
2024/03/07 22:42:23;;;;;;;63.10;29.90;;;;;;;-1.38;81.46;99315.80;435669;1253;98008;-40
2024/03/07 22:52:30;;;;;;;49.60;26.40;;;;;;;-1.48;81.48;99308.06;435644;1255;109356;-39
2024/03/07 23:12:44;;;;;;;53.90;29.40;;;;;;;-1.41;82.02;99300.54;435685;1253;97989;-39
2024/03/07 23:22:54;;;;;;;56.30;32.30;;;;;;;-1.51;81.99;99296.44;435813;1253;108999;-40
2024/03/07 23:33:02;;;;;;;68.10;33.80;;;;;;;-1.66;82.36;99289.80;435770;1254;108661;-39
2024/03/07 23:53:15;;;;;;;48.80;25.20;;;;;;;-1.69;82.54;99283.45;435682;1251;111812;-39
